Thurston, OH (43157)

7:51 AM EDT on March 26, 2017 (GMT -0400)
Keistor Manor | | Change Station

Elev 1010 ft 39.76 °N, 82.55 °W | Updated 8 minutes ago

Mostly Cloudy
Mostly Cloudy
59.7 °F
Feels Like 59.7 °F
N
0.0
Wind Variable Wind from ESE
Gusts 4.0 mph

Today
High -- | Low -- °F
--% Chance of Precip.
Yesterday
High -- | Low -- °F
Precip. -- in
Pressure 29.97 in
Visibility 10.0 miles
Clouds Few 7500 ft
Scattered Clouds 12000 ft
Dew Point 49 °F
Humidity 69%
Rainfall 0.00 in
Snow Depth Not available.
7:23 AM 7:48 PM
Waning Crescent, 3% visible
METAR KLHQ 261053Z AUTO 15006KT 10SM FEW075 SCT120 16/09 A2999 RMK AO2 SLP149 T01610089
Pressure 29.97 in
Visibility 10.0 miles
Clouds Few 7500 ft
Scattered Clouds 12000 ft
Dew Point 49 °F
Humidity 69%
Rainfall 0.00 in
Snow Depth Not available.
7:23 AM 7:48 PM
Waning Crescent, 3% visible
METAR KLHQ 261053Z AUTO 15006KT 10SM FEW075 SCT120 16/09 A2999 RMK AO2 SLP149 T01610089

Get Severe Weather Alerts

Thanks for signing up!

Be on the lookout for a verification email in your inbox.

You'll start receiving the daily forecast at 8 AM.

×

10-Day Weather Forecast

Almanac

Astronomy

Mar. 26, 2017 Rise Set
Actual Time
Civil Twilight
Nautical Twilight
Astronomical Twilight
Moon
Length of Visible Light
Length of Day
Tomorrow will be .
, % of the Moon is Illuminated

Today's Extremes

State Highs State Lows

Community

WunderPhotos

Upload Photos

1,962,540 photos uploaded!

WunderBlog® & News

Nearby

Air Quality

  Air Quality AQ Index Pollutant
Not available.

Snow Depth

Station Depth Elevation

Earthquake Activity

City Distance Mag. Time & Date
Minimum magnitude displayed is 2.5.

Earthquake Activity

City Distance Mag. Time & Date
Minimum magnitude displayed is 2.5.

Coastal Water Temperatures

Place Temperature

Stations

Nearby Weather Stations

Station Location Temp. Windchill Dew Point Humidity Wind Precip. Elev Updated Type
                   

Watches & Warnings

There are currently no watches in effect.